createdAt,value
2023-01-30T00:02:12.766Z,-0.89
2023-01-30T00:04:43.055Z,-0.87
2023-01-30T00:07:11.550Z,-0.86
2023-01-30T00:09:44.128Z,-0.87
2023-01-30T00:12:14.414Z,-0.86
2023-01-30T00:14:43.092Z,-0.86
2023-01-30T00:17:11.389Z,-0.85
2023-01-30T00:19:42.430Z,-0.80
2023-01-30T00:22:10.408Z,-0.71
2023-01-30T00:24:44.170Z,-0.65
2023-01-30T00:27:12.361Z,-0.61
2023-01-30T00:29:40.660Z,-0.56
2023-01-30T00:32:13.597Z,-0.55
2023-01-30T00:34:41.761Z,-0.55
2023-01-30T00:37:09.976Z,-0.58
2023-01-30T00:39:37.990Z,-0.62
2023-01-30T00:42:24.684Z,-0.65
2023-01-30T00:45:12.857Z,-0.67
2023-01-30T00:47:41.596Z,-0.70
2023-01-30T00:50:10.116Z,-0.72
2023-01-30T00:52:38.875Z,-0.74
2023-01-30T00:55:07.816Z,-0.76
2023-01-30T00:57:35.837Z,-0.80
2023-01-30T01:00:05.595Z,-0.83
2023-01-30T01:02:33.840Z,-0.84
2023-01-30T01:05:02.034Z,-0.84
2023-01-30T01:07:31.060Z,-0.88
2023-01-30T01:10:00.625Z,-0.91
2023-01-30T01:12:28.824Z,-0.90
2023-01-30T01:14:57.262Z,-0.90
2023-01-30T01:17:25.668Z,-0.88
2023-01-30T01:19:53.810Z,-0.88
2023-01-30T01:22:21.985Z,-0.89
2023-01-30T01:24:50.070Z,-0.87
2023-01-30T01:27:19.634Z,-0.83
2023-01-30T01:29:47.560Z,-0.79
2023-01-30T01:32:17.158Z,-0.71
2023-01-30T01:34:45.584Z,-0.63
2023-01-30T01:37:13.850Z,-0.58
2023-01-30T01:40:02.916Z,-0.55
2023-01-30T01:42:34.467Z,-0.53
2023-01-30T01:45:11.647Z,-0.53
2023-01-30T01:47:53.723Z,-0.54
2023-01-30T01:50:25.575Z,-0.58
2023-01-30T04:02:45.883Z,-1.38
2023-01-30T04:05:14.425Z,-1.37
2023-01-30T04:07:44.277Z,-1.33
2023-01-30T04:10:14.664Z,-1.26
2023-01-30T04:12:42.420Z,-1.19
2023-01-30T04:15:10.197Z,-1.11
2023-01-30T04:17:55.032Z,-1.05
2023-01-30T04:20:42.591Z,-0.99
2023-01-30T04:23:10.262Z,-0.95
2023-01-30T04:25:37.043Z,-0.92
2023-01-30T04:28:07.429Z,-0.90
2023-01-30T04:30:36.979Z,-0.90
2023-01-30T04:33:39.526Z,-0.92
2023-01-30T04:36:08.218Z,-0.93
2023-01-30T04:38:35.507Z,-0.95
2023-01-30T04:41:04.216Z,-0.95
2023-01-30T04:43:32.297Z,-0.94
2023-01-30T04:46:21.860Z,-0.89
2023-01-30T04:48:49.159Z,-0.86
2023-01-30T04:51:16.087Z,-0.81
2023-01-30T04:53:43.116Z,-0.77
2023-01-30T04:56:10.943Z,-0.70
2023-01-30T04:58:38.049Z,-0.66
2023-01-30T05:01:24.868Z,-0.64
2023-01-30T05:03:55.214Z,-0.66
2023-01-30T05:06:22.621Z,-0.71
2023-01-30T05:08:52.669Z,-0.75
2023-01-30T05:11:19.789Z,-0.77
2023-01-30T05:13:46.777Z,-0.77
2023-01-30T05:16:14.401Z,-0.78
2023-01-30T05:18:41.640Z,-0.78
2023-01-30T05:21:13.624Z,-0.77
2023-01-30T05:23:41.169Z,-0.77
2023-01-30T05:26:07.885Z,-0.76
2023-01-30T05:28:35.053Z,-0.72
2023-01-30T05:31:07.511Z,-0.69
2023-01-30T05:33:34.355Z,-0.66
2023-01-30T05:36:01.720Z,-0.67
2023-01-30T05:38:29.234Z,-0.67
2023-01-30T05:41:00.588Z,-0.69
2023-01-30T05:43:27.405Z,-0.72
2023-01-30T05:45:56.597Z,-0.75
2023-01-30T05:48:23.389Z,-0.76
2023-01-30T05:50:54.795Z,-0.77
2023-01-30T05:53:26.053Z,-0.78
2023-01-30T05:55:57.192Z,-0.81
2023-01-30T05:58:24.090Z,-0.87
2023-01-30T06:00:50.768Z,-0.85
2023-01-30T06:07:22.778Z,-0.74
2023-01-30T06:09:51.248Z,-0.75
2023-01-30T06:12:19.664Z,-0.78
2023-01-30T06:14:46.351Z,-0.78
2023-01-30T06:17:14.062Z,-0.79
2023-01-30T06:19:41.200Z,-0.83
2023-01-30T06:22:07.800Z,-0.81
2023-01-30T06:24:34.463Z,-0.77
2023-01-30T06:27:01.102Z,-0.75
2023-01-30T06:29:30.151Z,-0.74
2023-01-30T06:31:57.108Z,-0.73
2023-01-30T06:34:23.722Z,-0.70
2023-01-30T06:36:51.012Z,-0.68
2023-01-30T06:39:18.659Z,-0.69
2023-01-30T06:41:45.337Z,-0.70
2023-01-30T06:44:12.332Z,-0.71
2023-01-30T06:46:39.563Z,-0.72
2023-01-30T06:49:06.440Z,-0.73
2023-01-30T06:51:33.220Z,-0.72
2023-01-30T06:53:59.955Z,-0.69
2023-01-30T06:56:27.351Z,-0.64
2023-01-30T06:58:54.566Z,-0.63
2023-01-30T07:01:21.269Z,-0.63
2023-01-30T07:03:48.121Z,-0.60
2023-01-30T07:06:14.810Z,-0.59
2023-01-30T07:08:43.845Z,-0.61
2023-01-30T07:11:10.456Z,-0.61
2023-01-30T07:13:37.061Z,-0.64
2023-01-30T07:16:03.903Z,-0.68
2023-01-30T07:18:32.288Z,-0.71
2023-01-30T07:20:59.059Z,-0.72
2023-01-30T07:23:25.894Z,-0.69
2023-01-30T07:25:52.680Z,-0.64
2023-01-30T07:28:19.630Z,-0.62
2023-01-30T07:30:47.267Z,-0.58
2023-01-30T07:33:13.953Z,-0.54
2023-01-30T07:35:40.626Z,-0.54
2023-01-30T07:38:07.551Z,-0.55
2023-01-30T07:40:34.225Z,-0.57
2023-01-30T07:43:05.245Z,-0.58
2023-01-30T07:45:39.673Z,-0.58
2023-01-30T07:48:07.413Z,-0.56
2023-01-30T07:50:37.231Z,-0.51
2023-01-30T07:53:04.953Z,-0.47
2023-01-30T07:55:31.928Z,-0.42
2023-01-30T07:57:59.580Z,-0.37
2023-01-30T08:00:26.700Z,-0.35
2023-01-30T08:02:53.316Z,-0.33
2023-01-30T08:05:19.968Z,-0.32
2023-01-30T08:07:47.562Z,-0.32
2023-01-30T08:10:17.584Z,-0.37
2023-01-30T08:12:46.079Z,-0.37
2023-01-30T08:15:13.383Z,-0.34
2023-01-30T08:17:40.269Z,-0.31
2023-01-30T08:20:08.274Z,-0.29
2023-01-30T08:22:34.950Z,-0.26
2023-01-30T08:25:01.954Z,-0.25
2023-01-30T08:27:28.768Z,-0.27
2023-01-30T08:29:56.587Z,-0.28
2023-01-30T08:32:23.225Z,-0.28
2023-01-30T08:34:51.251Z,-0.30
2023-01-30T08:37:18.108Z,-0.30
2023-01-30T08:39:45.088Z,-0.31
2023-01-30T08:42:12.823Z,-0.29
2023-01-30T08:44:39.716Z,-0.26
2023-01-30T08:47:06.445Z,-0.24
2023-01-30T08:49:36.623Z,-0.21
2023-01-30T08:52:03.328Z,-0.17
2023-01-30T08:54:31.807Z,-0.17
2023-01-30T08:56:59.860Z,-0.14
2023-01-30T08:59:28.257Z,-0.12
2023-01-30T09:01:54.802Z,-0.11
2023-01-30T09:04:24.267Z,-0.12
2023-01-30T09:06:54.554Z,-0.13
2023-01-30T09:09:21.151Z,-0.10
2023-01-30T09:11:48.778Z,-0.08
2023-01-30T09:14:19.195Z,-0.05
2023-01-30T09:16:47.528Z,-0.01
2023-01-30T09:19:14.124Z,0.03
2023-01-30T09:21:40.808Z,0.04
2023-01-30T09:24:07.666Z,0.04
2023-01-30T09:26:34.636Z,0.04
2023-01-30T09:29:01.453Z,0.05
2023-01-30T09:31:28.499Z,0.05
2023-01-30T09:33:55.320Z,0.09
2023-01-30T09:36:22.275Z,0.15
2023-01-30T09:38:48.893Z,0.20
2023-01-30T09:41:58.295Z,0.25
2023-01-30T09:45:02.021Z,0.23
2023-01-30T13:47:58.310Z,-0.07
2023-01-30T13:50:35.021Z,-0.06
2023-01-30T13:53:18.830Z,-0.02
2023-01-30T13:55:48.515Z,0.05
2023-01-30T13:58:50.355Z,0.12
2023-01-30T14:01:19.443Z,0.19
2023-01-30T14:03:47.840Z,0.22
2023-01-30T14:06:31.671Z,0.25
2023-01-30T14:09:01.582Z,0.26
2023-01-30T14:11:36.543Z,0.27
2023-01-30T14:14:49.200Z,0.29
2023-01-30T14:17:18.112Z,0.36
2023-01-30T14:19:58.690Z,0.42
2023-01-30T14:22:47.255Z,0.44
2023-01-30T14:25:31.170Z,0.44
2023-01-30T14:28:05.786Z,0.43
2023-01-30T14:30:38.497Z,0.43
2023-01-30T14:33:21.877Z,0.42
2023-01-30T14:36:02.560Z,0.40
2023-01-30T14:38:32.179Z,0.42
2023-01-30T14:41:00.287Z,0.42
2023-01-30T14:43:38.453Z,0.43
2023-01-30T14:46:19.021Z,0.45
2023-01-30T14:49:04.683Z,0.47
2023-01-30T14:51:40.013Z,0.49
2023-01-30T14:54:13.691Z,0.48
2023-01-30T14:56:56.777Z,0.44
2023-01-30T14:59:30.924Z,0.44
2023-01-30T15:02:12.973Z,0.47
2023-01-30T15:05:06.807Z,0.49
2023-01-30T15:07:46.346Z,0.52
2023-01-30T15:10:25.669Z,0.52
2023-01-30T15:13:13.610Z,0.47
2023-01-30T15:15:54.056Z,0.47
2023-01-30T15:19:10.206Z,0.49
2023-01-30T15:22:10.349Z,0.53
2023-01-30T15:25:11.026Z,0.59
2023-01-30T15:27:42.120Z,0.59
2023-01-30T15:30:35.123Z,0.54
2023-01-30T15:33:29.777Z,0.48
2023-01-30T15:35:59.423Z,0.44
2023-01-30T15:38:34.238Z,0.42
2023-01-30T15:41:04.388Z,0.44
2023-01-30T15:44:05.962Z,0.44
2023-01-30T15:46:41.352Z,0.48
2023-01-30T15:49:36.715Z,0.49
2023-01-30T15:52:07.073Z,0.48
2023-01-30T15:54:35.934Z,0.46
2023-01-30T15:57:04.257Z,0.45
2023-01-30T15:59:38.507Z,0.45
2023-01-30T16:02:25.276Z,0.48
2023-01-30T16:05:07.385Z,0.47
2023-01-30T16:07:35.612Z,0.53
2023-01-30T16:10:10.734Z,0.53
2023-01-30T16:12:41.033Z,0.54
2023-01-30T16:15:20.068Z,0.53
2023-01-30T16:17:55.506Z,0.50
2023-01-30T16:20:23.940Z,0.50
2023-01-30T16:22:52.654Z,0.54
2023-01-30T16:25:23.313Z,0.54
2023-01-30T16:27:53.121Z,0.60
2023-01-30T16:30:23.768Z,0.65
2023-01-30T16:32:55.252Z,0.67
2023-01-30T16:35:26.899Z,0.67
2023-01-30T16:37:58.987Z,0.66
2023-01-30T16:40:33.304Z,0.64
2023-01-30T16:43:03.304Z,0.65
2023-01-30T16:45:34.512Z,0.66
2023-01-30T16:48:33.133Z,0.71
2023-01-30T16:51:04.864Z,0.77
2023-01-30T16:54:05.163Z,0.76
2023-01-30T16:56:33.852Z,0.73
2023-01-30T16:59:01.961Z,0.73
2023-01-30T17:01:38.597Z,0.72
2023-01-30T17:04:08.049Z,0.70
2023-01-30T17:06:40.301Z,0.70
2023-01-30T17:09:36.322Z,0.71
2023-01-30T17:12:38.423Z,0.73
2023-01-30T17:15:11.773Z,0.77
2023-01-30T17:17:40.925Z,0.77
2023-01-30T17:20:13.010Z,0.77
2023-01-30T17:22:40.987Z,0.78
2023-01-30T17:25:19.161Z,0.76
2023-01-30T17:27:47.599Z,0.75
2023-01-30T17:30:16.214Z,0.73
2023-01-30T17:32:44.216Z,0.74
2023-01-30T17:35:12.455Z,0.76
2023-01-30T17:37:42.182Z,0.77
2023-01-30T17:40:17.458Z,0.76
2023-01-30T17:42:49.016Z,0.77
2023-01-30T17:45:17.243Z,0.77
2023-01-30T17:47:45.494Z,0.75
2023-01-30T17:50:13.996Z,0.73
2023-01-30T17:52:46.288Z,0.72
2023-01-30T22:12:32.575Z,-1.58
2023-01-30T22:15:01.585Z,-1.59
2023-01-30T22:17:29.750Z,-1.57
2023-01-30T22:19:58.435Z,-1.53
2023-01-30T22:22:26.524Z,-1.48
2023-01-30T22:24:54.907Z,-1.40
2023-01-30T22:27:23.148Z,-1.31
2023-01-30T22:29:51.923Z,-1.20
2023-01-30T22:32:23.815Z,-1.10
2023-01-30T22:34:52.574Z,-1.05
2023-01-30T22:37:20.668Z,-1.03
2023-01-30T22:39:49.432Z,-1.03
2023-01-30T22:42:17.368Z,-1.01
2023-01-30T22:44:45.892Z,-1.01
2023-01-30T22:47:14.175Z,-0.99
2023-01-30T22:49:45.312Z,-0.96
2023-01-30T22:52:13.292Z,-0.94
2023-01-30T22:54:41.541Z,-0.94
2023-01-30T22:57:09.903Z,-0.94
2023-01-30T22:59:38.206Z,-0.93
2023-01-30T23:02:10.304Z,-0.95
2023-01-30T23:04:39.105Z,-0.92
2023-01-30T23:07:07.475Z,-0.91
2023-01-30T23:09:35.676Z,-0.91
2023-01-30T23:12:24.166Z,-0.94
2023-01-30T23:14:52.463Z,-0.93
2023-01-30T23:17:39.479Z,-0.96
2023-01-30T23:20:08.692Z,-0.98
2023-01-30T23:22:37.183Z,-0.95
2023-01-30T23:25:05.312Z,-0.95
2023-01-30T23:27:33.661Z,-1.02
2023-01-30T23:30:01.647Z,-1.04
2023-01-30T23:32:31.456Z,-0.99
2023-01-30T23:34:59.399Z,-0.95
2023-01-30T23:37:47.333Z,-0.91
2023-01-30T23:40:15.619Z,-0.87
2023-01-30T23:42:43.985Z,-0.86
2023-01-30T23:45:12.318Z,-0.88
2023-01-30T23:47:40.748Z,-0.92
